Time;durP1;ratioP1;P1;durP2;ratioP2;P2;SDS_P1;SDS_P2;PMS_P1;PMS_P2;Temp;Humidity;BMP_temperature;BMP_pressure;BME280_temperature;BME280_humidity;BME280_pressure;Samples;Min_cycle;Max_cycle;Signal;HPM_P1;HPM_P2
2023/10/24 00:00:16;;;;;;;23.58;11.30;;;10.00;99.90;;;;;;5093018;28;20055;-82
2023/10/24 00:02:42;;;;;;;21.30;9.82;;;10.00;99.90;;;;;;5093217;28;20097;-82
2023/10/24 00:05:08;;;;;;;20.75;11.15;;;10.00;99.90;;;;;;5092874;28;20395;-81
2023/10/24 00:07:34;;;;;;;20.38;9.68;;;10.00;99.90;;;;;;5093226;28;20052;-81
2023/10/24 00:10:01;;;;;;;20.90;10.52;;;9.90;99.90;;;;;;5093007;28;20433;-82
2023/10/24 00:12:27;;;;;;;24.52;9.65;;;9.90;99.90;;;;;;5092993;28;20048;-82
2023/10/24 00:14:55;;;;;;;24.33;11.70;;;9.90;99.90;;;;;;5093197;28;20201;-82
2023/10/24 00:17:21;;;;;;;22.27;10.55;;;9.90;99.90;;;;;;5092968;28;20044;-82
2023/10/24 00:19:46;;;;;;;20.50;10.38;;;9.90;99.90;;;;;;5092726;28;20084;-82
2023/10/24 00:22:12;;;;;;;18.92;10.40;;;9.90;99.90;;;;;;5092904;28;20146;-82
2023/10/24 00:24:37;;;;;;;20.05;9.68;;;9.90;99.90;;;;;;5092607;28;20134;-82
2023/10/24 00:27:08;;;;;;;20.77;10.75;;;9.90;99.90;;;;;;5075857;28;20044;-83
2023/10/24 00:29:34;;;;;;;24.52;11.18;;;9.90;99.90;;;;;;5075881;28;20055;-82
2023/10/24 00:32:00;;;;;;;23.75;11.52;;;9.90;99.90;;;;;;5075873;28;20036;-82
2023/10/24 00:34:25;;;;;;;19.33;11.35;;;9.90;99.90;;;;;;5075977;28;20105;-82
2023/10/24 00:36:51;;;;;;;19.52;10.45;;;9.90;99.90;;;;;;5075731;28;20048;-82
2023/10/24 00:39:17;;;;;;;25.40;12.00;;;9.90;99.90;;;;;;5075513;28;20048;-82
2023/10/24 00:41:42;;;;;;;23.95;11.90;;;9.90;99.90;;;;;;5075611;28;20048;-83
2023/10/24 00:44:08;;;;;;;24.23;10.35;;;9.90;99.90;;;;;;5075774;28;20050;-82
2023/10/24 00:46:37;;;;;;;21.15;11.57;;;9.80;99.90;;;;;;5075448;28;20066;-83
2023/10/24 00:49:03;;;;;;;23.98;12.20;;;9.90;99.90;;;;;;5093653;28;20063;-82
2023/10/24 00:51:29;;;;;;;19.35;10.27;;;9.90;99.90;;;;;;5075671;28;20147;-84
2023/10/24 00:53:57;;;;;;;21.73;11.73;;;9.90;99.90;;;;;;5059169;28;20547;-82
2023/10/24 00:56:23;;;;;;;20.95;10.57;;;10.00;99.90;;;;;;5075740;28;20044;-82
2023/10/24 00:58:50;;;;;;;26.92;11.77;;;9.90;99.90;;;;;;5075434;28;20052;-82
2023/10/24 01:01:16;;;;;;;27.30;11.65;;;9.90;99.90;;;;;;5077483;28;20067;-82
2023/10/24 01:03:43;;;;;;;24.15;11.43;;;9.90;99.90;;;;;;5079591;28;20403;-82
2023/10/24 01:06:09;;;;;;;21.85;11.13;;;9.90;99.90;;;;;;5079440;28;20040;-82
2023/10/24 01:08:36;;;;;;;23.25;11.20;;;9.90;99.90;;;;;;5079825;28;20051;-82
2023/10/24 01:11:02;;;;;;;27.42;14.25;;;9.90;99.90;;;;;;5079404;28;20047;-82
2023/10/24 01:13:28;;;;;;;24.08;11.38;;;9.90;99.90;;;;;;5079469;28;20127;-82
2023/10/24 01:15:54;;;;;;;31.08;12.55;;;9.90;99.90;;;;;;5079546;28;20501;-82
2023/10/24 01:18:19;;;;;;;25.02;11.52;;;10.00;99.90;;;;;;5079391;28;20048;-83
2023/10/24 01:20:45;;;;;;;23.60;11.32;;;9.90;99.90;;;;;;5079537;28;20051;-82
2023/10/24 01:23:11;;;;;;;19.58;10.00;;;10.00;99.90;;;;;;5079428;28;20398;-83
2023/10/24 01:25:39;;;;;;;21.88;11.45;;;10.00;99.90;;;;;;5096908;28;20383;-83
2023/10/24 01:28:06;;;;;;;22.23;11.00;;;10.00;99.90;;;;;;5079044;28;20044;-83
2023/10/24 01:30:37;;;;;;;23.33;11.88;;;10.00;99.90;;;;;;5079289;28;20143;-84
2023/10/24 01:33:03;;;;;;;24.70;12.25;;;10.00;99.90;;;;;;5078937;28;20047;-84
2023/10/24 01:35:29;;;;;;;22.40;11.50;;;10.10;99.90;;;;;;5079209;28;20044;-84
2023/10/24 01:37:55;;;;;;;26.60;12.15;;;10.10;99.90;;;;;;5078921;28;20040;-84
2023/10/24 01:40:20;;;;;;;25.35;12.15;;;10.00;99.90;;;;;;5079329;28;20054;-87
2023/10/24 01:42:46;;;;;;;25.65;12.75;;;10.00;99.90;;;;;;5078753;28;20040;-83
2023/10/24 01:45:11;;;;;;;22.90;11.85;;;10.00;99.90;;;;;;5078860;28;20079;-83
2023/10/24 01:47:37;;;;;;;28.38;13.38;;;10.00;99.90;;;;;;5078853;28;20051;-83
2023/10/24 01:50:03;;;;;;;22.60;11.73;;;10.00;99.90;;;;;;5079085;28;20036;-84
2023/10/24 01:52:31;;;;;;;22.85;11.98;;;10.00;99.90;;;;;;5078737;28;20060;-83
2023/10/24 01:54:56;;;;;;;21.55;11.25;;;10.00;99.90;;;;;;5097324;28;20054;-84
2023/10/24 01:57:22;;;;;;;24.58;11.25;;;10.00;99.90;;;;;;5078470;28;20040;-84
2023/10/24 01:59:48;;;;;;;23.88;11.65;;;10.00;99.90;;;;;;5078432;28;20078;-83
2023/10/24 02:02:13;;;;;;;23.48;12.40;;;10.00;99.90;;;;;;5078790;28;20044;-84
2023/10/24 02:04:39;;;;;;;26.27;12.55;;;10.00;99.90;;;;;;5078613;28;20047;-83
2023/10/24 02:07:04;;;;;;;21.45;12.38;;;10.00;99.90;;;;;;5078664;28;20383;-83
2023/10/24 02:09:31;;;;;;;23.13;11.77;;;10.00;99.90;;;;;;5078603;28;20487;-83
2023/10/24 02:12:00;;;;;;;24.65;12.50;;;10.00;99.90;;;;;;5078251;28;20044;-83
2023/10/24 02:14:26;;;;;;;27.20;13.02;;;10.00;99.90;;;;;;5078240;28;20123;-83
2023/10/24 02:16:52;;;;;;;25.08;11.98;;;10.00;99.90;;;;;;5078223;28;20067;-83
2023/10/24 02:19:17;;;;;;;24.90;13.38;;;10.00;99.90;;;;;;5078259;28;20036;-83
2023/10/24 02:21:43;;;;;;;24.48;12.38;;;10.00;99.90;;;;;;5078292;28;20050;-83
2023/10/24 02:24:09;;;;;;;24.02;13.07;;;10.00;99.90;;;;;;5078033;28;20564;-83
2023/10/24 02:26:34;;;;;;;27.40;13.40;;;10.00;99.90;;;;;;5095861;28;20062;-84
2023/10/24 02:29:00;;;;;;;31.63;13.73;;;10.00;99.90;;;;;;5077973;28;20047;-84
2023/10/24 02:31:25;;;;;;;23.48;12.63;;;10.00;99.90;;;;;;5078305;28;20054;-83
2023/10/24 02:33:51;;;;;;;25.85;13.30;;;10.00;99.90;;;;;;5078011;28;20071;-83
2023/10/24 02:36:17;;;;;;;27.90;14.32;;;10.00;99.90;;;;;;5078110;28;20127;-84
2023/10/24 02:38:42;;;;;;;27.58;13.52;;;10.00;99.90;;;;;;5077693;28;20413;-85
2023/10/24 02:41:08;;;;;;;29.52;15.02;;;10.00;99.90;;;;;;5078032;28;20113;-84
2023/10/24 02:43:34;;;;;;;25.08;13.35;;;10.00;99.90;;;;;;5077751;28;20467;-84
2023/10/24 02:46:03;;;;;;;29.88;13.68;;;10.00;99.90;;;;;;5077620;28;20048;-83
2023/10/24 02:48:29;;;;;;;25.83;13.95;;;10.00;99.90;;;;;;5095667;28;20069;-83
2023/10/24 02:50:56;;;;;;;29.52;15.18;;;10.00;99.90;;;;;;5077524;28;20148;-83
2023/10/24 02:53:23;;;;;;;29.33;15.90;;;10.00;99.90;;;;;;5077441;28;20506;-83
2023/10/24 02:55:49;;;;;;;29.42;14.40;;;10.00;99.90;;;;;;5077354;28;20043;-84
2023/10/24 02:58:16;;;;;;;27.73;13.75;;;10.00;99.90;;;;;;5077318;28;20051;-84
2023/10/24 03:00:42;;;;;;;28.15;15.13;;;10.00;99.90;;;;;;5077358;28;20096;-84
2023/10/24 03:03:09;;;;;;;26.80;14.55;;;10.00;99.90;;;;;;5077545;28;20492;-84
2023/10/24 03:05:35;;;;;;;29.73;14.90;;;10.00;99.90;;;;;;5077356;28;20492;-83
2023/10/24 03:08:00;;;;;;;25.80;15.05;;;10.00;99.90;;;;;;5077215;28;20123;-84
2023/10/24 03:10:26;;;;;;;30.27;16.00;;;10.00;99.90;;;;;;5077349;28;20047;-84
2023/10/24 03:12:53;;;;;;;27.55;15.50;;;10.10;99.90;;;;;;5077308;28;20093;-85
2023/10/24 03:15:19;;;;;;;28.50;15.57;;;10.10;99.90;;;;;;5077310;28;20131;-84
2023/10/24 03:17:44;;;;;;;26.27;14.52;;;10.10;99.90;;;;;;5077194;28;20435;-84
2023/10/24 03:20:10;;;;;;;28.00;14.63;;;10.10;99.90;;;;;;5077006;28;20047;-84
2023/10/24 03:22:36;;;;;;;27.42;14.70;;;10.10;99.90;;;;;;5077248;28;20089;-84
2023/10/24 03:25:03;;;;;;;25.27;15.63;;;10.10;99.90;;;;;;5076319;28;20127;-84
2023/10/24 03:27:29;;;;;;;27.92;15.35;;;10.20;99.90;;;;;;5093612;28;20056;-85
2023/10/24 03:29:55;;;;;;;29.65;16.00;;;10.20;99.90;;;;;;5094086;28;20040;-85
2023/10/24 03:32:21;;;;;;;27.35;15.27;;;10.10;99.90;;;;;;5093983;28;20527;-86
2023/10/24 03:34:47;;;;;;;26.13;15.32;;;10.10;99.90;;;;;;5094806;28;20051;-85
2023/10/24 03:37:12;;;;;;;30.50;15.25;;;10.10;99.90;;;;;;5093671;28;20047;-85
2023/10/24 03:39:38;;;;;;;25.25;15.55;;;10.10;99.90;;;;;;5093445;28;20394;-85
2023/10/24 03:42:04;;;;;;;27.30;15.77;;;10.10;99.90;;;;;;5093486;28;20495;-85
2023/10/24 03:44:30;;;;;;;26.15;15.25;;;10.20;99.90;;;;;;5093668;28;20044;-84
2023/10/24 03:46:55;;;;;;;28.73;14.43;;;10.20;99.90;;;;;;5093570;28;20391;-88
2023/10/24 03:49:21;;;;;;;25.00;14.20;;;10.20;99.90;;;;;;5093390;28;20123;-85
2023/10/24 03:51:46;;;;;;;26.08;14.48;;;10.20;99.90;;;;;;5093415;28;20044;-84
2023/10/24 03:54:13;;;;;;;25.65;14.63;;;10.20;99.90;;;;;;5094146;28;20044;-86
2023/10/24 03:56:38;;;;;;;23.83;13.75;;;10.30;99.90;;;;;;5093417;28;20382;-83
2023/10/24 03:59:06;;;;;;;24.15;14.40;;;10.20;99.90;;;;;;5093049;28;20115;-85
2023/10/24 04:01:34;;;;;;;21.27;13.00;;;10.20;99.90;;;;;;5093021;28;20097;-85
2023/10/24 04:04:00;;;;;;;24.02;13.45;;;10.30;99.90;;;;;;5093428;28;20880;-85
2023/10/24 04:06:27;;;;;;;21.50;12.88;;;10.30;99.90;;;;;;5092862;28;20044;-85
2023/10/24 04:08:53;;;;;;;23.77;13.27;;;10.30;99.90;;;;;;5093546;28;20055;-85
2023/10/24 04:11:18;;;;;;;21.42;13.10;;;10.30;99.90;;;;;;5093202;28;20043;-84
2023/10/24 04:13:45;;;;;;;20.95;12.38;;;10.30;99.90;;;;;;5094192;28;20051;-84
2023/10/24 04:16:11;;;;;;;20.88;11.60;;;10.40;99.90;;;;;;5092775;28;20079;-84
2023/10/24 04:18:38;;;;;;;19.65;12.15;;;10.40;99.90;;;;;;5092923;28;20056;-84
2023/10/24 04:21:03;;;;;;;20.80;12.57;;;10.40;99.90;;;;;;5092737;28;20040;-84
2023/10/24 04:23:29;;;;;;;21.67;11.80;;;10.40;99.90;;;;;;5092703;28;20043;-85
2023/10/24 04:25:55;;;;;;;21.27;12.23;;;10.40;99.90;;;;;;5092545;28;20048;-84
2023/10/24 04:28:21;;;;;;;19.25;12.57;;;10.40;99.90;;;;;;5092957;28;20048;-85
2023/10/24 04:30:46;;;;;;;19.80;11.55;;;10.40;99.90;;;;;;5092962;28;20147;-83
2023/10/24 04:33:13;;;;;;;18.30;12.07;;;10.50;99.90;;;;;;5092482;28;20075;-84
2023/10/24 04:35:46;;;;;;;19.10;12.02;;;10.50;99.90;;;;;;5091568;28;20135;-88
2023/10/24 04:38:11;;;;;;;22.60;13.77;;;10.50;99.90;;;;;;5092851;28;20372;-84
2023/10/24 04:40:38;;;;;;;19.40;11.52;;;10.50;99.90;;;;;;5092348;28;20524;-84
2023/10/24 04:43:05;;;;;;;21.50;12.48;;;10.50;99.90;;;;;;5092804;28;20047;-83
2023/10/24 04:45:31;;;;;;;21.13;11.23;;;10.50;99.90;;;;;;5092182;28;20086;-84
2023/10/24 04:47:58;;;;;;;25.20;13.85;;;10.50;99.90;;;;;;5092579;28;20044;-84
2023/10/24 04:50:24;;;;;;;21.65;12.48;;;10.50;99.90;;;;;;5092222;28;20082;-83
2023/10/24 04:52:50;;;;;;;21.88;12.23;;;10.50;99.90;;;;;;5092389;28;20072;-83
2023/10/24 04:55:16;;;;;;;22.20;12.68;;;10.50;99.90;;;;;;5092432;28;20129;-83
2023/10/24 04:57:42;;;;;;;22.35;13.25;;;10.50;99.90;;;;;;5092712;28;20113;-84
2023/10/24 05:00:12;;;;;;;23.08;13.77;;;10.60;99.90;;;;;;5092243;28;20537;-84
2023/10/24 05:02:42;;;;;;;21.73;13.65;;;10.60;99.90;;;;;;5092248;28;20052;-85
2023/10/24 05:05:08;;;;;;;22.40;13.40;;;10.60;99.90;;;;;;5092369;28;20123;-84
2023/10/24 05:07:34;;;;;;;24.90;14.63;;;10.60;99.90;;;;;;5092224;28;20173;-84
2023/10/24 05:10:00;;;;;;;23.08;14.60;;;10.60;99.90;;;;;;5092646;28;20044;-84
2023/10/24 05:12:25;;;;;;;24.00;13.77;;;10.50;99.90;;;;;;5092299;28;20398;-84
2023/10/24 05:14:51;;;;;;;23.13;13.07;;;10.60;99.90;;;;;;5092411;28;20044;-85
2023/10/24 05:17:16;;;;;;;23.17;13.90;;;10.60;99.90;;;;;;5092114;28;20047;-84
2023/10/24 05:19:42;;;;;;;24.85;13.63;;;10.60;99.90;;;;;;5092163;28;20040;-84
2023/10/24 05:22:09;;;;;;;24.23;14.93;;;10.60;99.90;;;;;;5092406;28;20044;-86
2023/10/24 05:24:35;;;;;;;26.33;14.77;;;10.70;99.90;;;;;;5092279;28;20040;-85
2023/10/24 05:27:00;;;;;;;27.20;13.95;;;10.60;99.90;;;;;;5091901;28;20392;-85
2023/10/24 05:29:26;;;;;;;29.73;15.45;;;10.60;99.90;;;;;;5092187;28;20120;-84
2023/10/24 05:31:52;;;;;;;25.17;15.25;;;10.60;99.90;;;;;;5093415;28;20044;-85
2023/10/24 05:34:17;;;;;;;27.15;14.95;;;10.70;99.90;;;;;;5091957;28;20562;-85
2023/10/24 05:36:43;;;;;;;26.05;14.65;;;10.70;99.90;;;;;;5092218;28;20051;-84
2023/10/24 05:39:09;;;;;;;22.42;14.10;;;10.70;99.90;;;;;;5092072;28;20072;-85
2023/10/24 05:41:34;;;;;;;25.02;14.27;;;10.70;99.90;;;;;;5091827;28;20078;-84
2023/10/24 05:44:00;;;;;;;26.65;15.55;;;10.70;99.90;;;;;;5092284;28;20073;-84
2023/10/24 05:46:25;;;;;;;28.05;15.40;;;10.70;99.90;;;;;;5092330;28;20086;-83
2023/10/24 05:48:53;;;;;;;28.35;16.00;;;10.70;99.90;;;;;;5095668;28;20036;-84
2023/10/24 05:51:27;;;;;;;26.02;15.52;;;10.80;99.90;;;;;;5095861;28;20060;-84
2023/10/24 05:53:53;;;;;;;26.35;15.38;;;10.70;99.90;;;;;;5095983;28;20052;-84
2023/10/24 05:56:19;;;;;;;27.52;15.90;;;10.70;99.90;;;;;;5095762;28;20092;-83
2023/10/24 05:58:45;;;;;;;26.27;15.60;;;10.80;99.90;;;;;;5096572;28;20048;-84
2023/10/24 06:01:11;;;;;;;27.65;15.40;;;10.70;99.90;;;;;;5095391;28;20101;-83
2023/10/24 06:03:37;;;;;;;27.67;16.63;;;10.80;99.90;;;;;;5095389;28;20044;-83
2023/10/24 06:06:03;;;;;;;28.42;15.75;;;10.90;99.90;;;;;;5095398;28;20079;-83
2023/10/24 06:08:28;;;;;;;30.70;16.02;;;10.80;99.90;;;;;;5095280;28;20046;-82
2023/10/24 06:10:58;;;;;;;26.73;16.25;;;10.80;99.90;;;;;;5096533;28;20044;-83
2023/10/24 06:13:25;;;;;;;26.70;15.60;;;10.80;99.90;;;;;;5096848;28;20036;-82
2023/10/24 06:15:51;;;;;;;33.25;17.73;;;10.90;99.90;;;;;;5096384;28;20044;-82
2023/10/24 06:18:17;;;;;;;30.65;17.33;;;10.80;99.90;;;;;;5095207;28;20051;-83
2023/10/24 06:20:43;;;;;;;30.88;16.42;;;10.80;99.90;;;;;;5095003;28;20576;-82
2023/10/24 06:23:10;;;;;;;30.63;17.05;;;10.90;99.90;;;;;;5096313;28;20048;-83
2023/10/24 06:25:38;;;;;;;33.70;18.23;;;10.80;99.90;;;;;;5095838;28;20052;-82
2023/10/24 06:28:04;;;;;;;33.83;18.48;;;10.80;99.90;;;;;;5078079;28;20062;-82
2023/10/24 06:30:31;;;;;;;28.52;16.58;;;10.90;99.90;;;;;;5077192;28;20484;-82
2023/10/24 06:32:59;;;;;;;31.85;18.33;;;10.80;99.90;;;;;;5077692;28;20057;-83
2023/10/24 06:35:25;;;;;;;32.67;17.70;;;10.90;99.90;;;;;;5077852;28;20052;-84
2023/10/24 06:37:51;;;;;;;32.83;18.33;;;10.90;99.90;;;;;;5077844;28;20101;-81
2023/10/24 06:40:17;;;;;;;36.13;20.00;;;10.90;99.90;;;;;;5077863;28;20048;-82
2023/10/24 06:42:44;;;;;;;34.47;18.83;;;10.90;99.90;;;;;;5077532;28;20067;-81
2023/10/24 06:45:14;;;;;;;37.92;20.38;;;10.90;99.90;;;;;;5080908;28;20513;-79
2023/10/24 06:47:40;;;;;;;36.20;19.88;;;11.00;99.90;;;;;;5084077;28;20430;-79
2023/10/24 06:50:07;;;;;;;36.08;20.98;;;10.90;99.90;;;;;;5077398;28;20071;-80
2023/10/24 06:52:32;;;;;;;37.58;20.95;;;11.00;99.90;;;;;;5095423;28;20047;-80
2023/10/24 06:54:58;;;;;;;39.63;22.85;;;11.00;99.90;;;;;;5077070;28;20735;-80
2023/10/24 06:57:24;;;;;;;41.38;22.35;;;11.00;99.90;;;;;;5077334;28;20051;-80
2023/10/24 06:59:50;;;;;;;37.35;21.20;;;11.00;99.90;;;;;;5076002;28;20048;-80
2023/10/24 07:02:17;;;;;;;38.95;21.95;;;11.00;99.90;;;;;;5076982;28;20044;-80
2023/10/24 07:04:42;;;;;;;37.65;20.27;;;11.00;99.90;;;;;;5076937;28;20529;-80
2023/10/24 07:07:08;;;;;;;35.35;19.73;;;11.00;99.90;;;;;;5077014;28;20052;-81
2023/10/24 07:09:34;;;;;;;39.58;21.23;;;11.10;99.90;;;;;;5076753;28;20043;-80
2023/10/24 07:11:59;;;;;;;38.45;20.40;;;11.10;99.90;;;;;;5077025;28;20101;-79
2023/10/24 07:14:25;;;;;;;41.15;21.17;;;11.00;99.90;;;;;;5095219;28;20372;-79
2023/10/24 07:16:51;;;;;;;35.63;20.10;;;11.10;99.90;;;;;;5094866;28;20036;-81
2023/10/24 07:19:20;;;;;;;37.00;20.73;;;11.00;99.90;;;;;;5094862;28;20044;-78
2023/10/24 07:21:49;;;;;;;34.30;19.38;;;11.00;99.90;;;;;;5094623;28;20475;-79
2023/10/24 07:24:14;;;;;;;35.40;17.42;;;11.10;99.90;;;;;;5094631;28;20426;-80
2023/10/24 07:26:40;;;;;;;27.92;16.55;;;11.00;99.90;;;;;;5090180;28;20534;-79
2023/10/24 07:29:06;;;;;;;31.98;17.20;;;11.10;99.90;;;;;;5093451;28;20075;-81
2023/10/24 07:31:31;;;;;;;29.83;16.70;;;11.00;99.90;;;;;;5093302;28;20055;-81
2023/10/24 07:33:59;;;;;;;32.85;17.42;;;11.10;99.90;;;;;;5093337;28;20040;-79
2023/10/24 07:36:31;;;;;;;26.30;14.52;;;11.00;99.90;;;;;;5094568;28;20172;-78
2023/10/24 07:39:00;;;;;;;25.80;15.15;;;11.10;99.90;;;;;;5093156;28;20376;-79
2023/10/24 07:41:26;;;;;;;31.10;15.82;;;11.10;99.90;;;;;;5093222;28;20048;-79
2023/10/24 07:43:52;;;;;;;22.77;13.60;;;11.00;99.90;;;;;;5093341;28;20040;-79
2023/10/24 07:46:17;;;;;;;23.42;13.05;;;11.10;99.90;;;;;;5094247;28;20050;-78
2023/10/24 07:48:44;;;;;;;22.83;12.23;;;11.10;99.90;;;;;;5092847;28;20055;-80
2023/10/24 07:51:11;;;;;;;19.75;11.40;;;11.00;99.90;;;;;;5093277;28;20059;-79
2023/10/24 07:53:36;;;;;;;24.27;12.13;;;11.00;99.90;;;;;;5092858;28;20047;-79
2023/10/24 07:56:05;;;;;;;20.92;11.57;;;11.00;99.90;;;;;;5092878;28;20219;-79
2023/10/24 07:58:31;;;;;;;21.95;11.05;;;11.00;99.90;;;;;;5092854;28;20040;-79
2023/10/24 08:00:56;;;;;;;19.20;10.77;;;11.00;99.90;;;;;;5094161;28;20039;-79
2023/10/24 08:03:24;;;;;;;18.70;11.27;;;11.00;99.90;;;;;;5092576;28;20105;-79
2023/10/24 08:05:51;;;;;;;19.98;10.20;;;11.00;99.90;;;;;;5092675;28;20040;-78
2023/10/24 08:08:16;;;;;;;16.98;10.43;;;11.00;99.90;;;;;;5092867;28;20075;-78
2023/10/24 08:10:42;;;;;;;22.25;11.00;;;11.00;99.90;;;;;;5092758;28;20522;-79
2023/10/24 08:13:08;;;;;;;19.08;10.10;;;11.00;99.90;;;;;;5092562;28;20050;-79
2023/10/24 08:15:34;;;;;;;20.33;10.23;;;11.00;99.90;;;;;;5092812;28;20127;-79
2023/10/24 08:17:59;;;;;;;23.40;10.95;;;11.00;99.90;;;;;;5092669;28;20044;-79
2023/10/24 08:20:26;;;;;;;23.00;11.02;;;11.00;99.90;;;;;;5093678;28;20039;-79
2023/10/24 08:22:52;;;;;;;21.67;11.50;;;11.00;99.90;;;;;;5092429;28;20055;-79
2023/10/24 08:25:17;;;;;;;21.40;11.38;;;11.00;99.90;;;;;;5092082;28;20052;-79
2023/10/24 08:27:45;;;;;;;22.33;11.13;;;11.00;99.90;;;;;;5092422;28;20054;-79
2023/10/24 08:30:11;;;;;;;22.88;11.65;;;11.00;99.90;;;;;;5093832;28;20048;-78
2023/10/24 08:32:36;;;;;;;24.52;12.32;;;11.00;99.90;;;;;;5092482;28;20090;-79
2023/10/24 08:35:03;;;;;;;23.98;12.13;;;11.00;99.90;;;;;;5092245;28;20067;-80
2023/10/24 08:37:29;;;;;;;27.92;13.23;;;10.90;99.90;;;;;;5092238;28;20123;-80
2023/10/24 08:39:55;;;;;;;27.88;13.32;;;11.00;99.90;;;;;;5092132;28;20131;-79
2023/10/24 08:42:21;;;;;;;33.28;13.88;;;11.00;99.90;;;;;;5092161;28;20050;-79
2023/10/24 08:44:49;;;;;;;29.85;14.35;;;11.10;99.90;;;;;;5092268;28;20056;-80
2023/10/24 08:47:16;;;;;;;34.30;15.15;;;11.00;99.90;;;;;;5093595;28;20067;-80
2023/10/24 08:49:42;;;;;;;33.70;14.95;;;11.10;99.90;;;;;;5092362;28;20055;-81
2023/10/24 08:52:08;;;;;;;28.75;14.27;;;11.10;99.90;;;;;;5092024;28;20044;-81
2023/10/24 08:54:34;;;;;;;36.40;15.38;;;11.10;99.90;;;;;;5092012;28;20522;-81
2023/10/24 08:57:02;;;;;;;33.15;14.70;;;11.10;99.90;;;;;;5092296;28;20080;-82
2023/10/24 08:59:35;;;;;;;37.50;15.02;;;11.00;99.90;;;;;;5092041;28;20043;-79
2023/10/24 09:02:03;;;;;;;30.42;15.30;;;11.00;99.90;;;;;;5092117;28;20119;-86
2023/10/24 09:04:31;;;;;;;37.67;14.25;;;11.10;99.90;;;;;;5090851;28;20048;-81
2023/10/24 09:06:57;;;;;;;36.13;15.40;;;11.00;99.90;;;;;;5086569;28;20048;-79
2023/10/24 09:09:24;;;;;;;34.28;15.35;;;11.00;99.90;;;;;;5087427;28;20040;-81
2023/10/24 09:11:59;;;;;;;34.28;15.68;;;11.00;99.90;;;;;;5087215;28;20087;-82
2023/10/24 09:14:29;;;;;;;31.88;15.65;;;11.00;99.90;;;;;;5087662;28;20093;-83
2023/10/24 09:16:58;;;;;;;37.25;15.15;;;11.00;99.90;;;;;;5089406;28;20044;-80
2023/10/24 09:19:25;;;;;;;29.88;14.88;;;11.00;99.90;;;;;;5087856;28;20179;-84
2023/10/24 09:21:52;;;;;;;36.35;16.17;;;11.00;99.90;;;;;;5088467;28;20058;-80
2023/10/24 09:24:19;;;;;;;35.80;15.88;;;11.00;99.90;;;;;;5091888;28;20040;-82
2023/10/24 09:26:59;;;;;;;32.35;14.75;;;11.00;99.90;;;;;;5091041;28;20048;-81
2023/10/24 09:29:27;;;;;;;32.70;15.07;;;11.00;99.90;;;;;;5091501;28;20086;-81
2023/10/24 09:31:57;;;;;;;33.67;14.85;;;11.00;99.90;;;;;;5091308;28;20055;-81
2023/10/24 09:34:23;;;;;;;34.13;15.43;;;11.10;99.90;;;;;;5091374;28;20054;-80
2023/10/24 09:36:49;;;;;;;30.02;14.48;;;11.00;99.90;;;;;;5091911;28;20086;-81
2023/10/24 09:39:15;;;;;;;36.13;15.93;;;11.00;99.90;;;;;;5091140;28;20075;-81
2023/10/24 09:41:42;;;;;;;31.52;14.90;;;11.00;99.90;;;;;;5091450;28;20044;-80
2023/10/24 09:44:08;;;;;;;32.00;16.05;;;11.00;99.90;;;;;;5091783;28;20185;-81
2023/10/24 09:46:35;;;;;;;31.25;15.38;;;11.00;99.90;;;;;;5090786;28;20055;-80
2023/10/24 09:49:02;;;;;;;32.10;14.77;;;11.00;99.90;;;;;;5090702;28;20040;-80
2023/10/24 09:51:28;;;;;;;30.65;14.38;;;11.10;99.90;;;;;;5095025;28;20047;-86
2023/10/24 09:53:55;;;;;;;30.88;14.77;;;11.10;99.90;;;;;;5094854;28;20047;-80
2023/10/24 09:56:21;;;;;;;36.20;16.52;;;11.10;99.90;;;;;;5093142;28;20130;-80
2023/10/24 09:58:46;;;;;;;33.33;15.95;;;11.10;99.90;;;;;;5094973;28;20166;-79
2023/10/24 10:01:12;;;;;;;33.95;16.38;;;11.10;99.90;;;;;;5095083;28;20152;-79
2023/10/24 10:03:38;;;;;;;34.03;15.80;;;11.10;99.90;;;;;;5094773;28;20040;-79
2023/10/24 10:06:09;;;;;;;38.22;17.63;;;11.10;99.90;;;;;;5095067;28;20036;-79
2023/10/24 10:08:37;;;;;;;34.45;17.13;;;11.10;99.90;;;;;;5096306;28;20044;-79
2023/10/24 10:11:05;;;;;;;31.60;17.08;;;11.10;99.90;;;;;;5068106;28;20055;-82
2023/10/24 10:14:05;;;;;;;38.00;18.33;;;11.10;99.90;;;;;;5083140;28;20050;-80
2023/10/24 10:16:51;;;;;;;37.03;17.50;;;11.00;99.90;;;;;;5068021;28;20076;-78
2023/10/24 10:19:47;;;;;;;34.75;18.17;;;11.10;99.90;;;;;;5072012;28;20044;-81
2023/10/24 10:22:32;;;;;;;36.53;18.17;;;11.10;99.90;;;;;;5087283;28;20091;-78
2023/10/24 10:25:25;;;;;;;33.83;17.10;;;11.10;99.90;;;;;;5095043;28;20080;-81
2023/10/24 10:28:31;;;;;;;38.40;18.95;;;11.00;99.90;;;;;;5094203;28;20056;-81
2023/10/24 10:31:16;;;;;;;31.75;17.45;;;11.00;99.90;;;;;;5028800;28;20110;-81
2023/10/24 10:33:43;;;;;;;34.22;18.27;;;11.00;99.90;;;;;;5076822;28;20147;-81
2023/10/24 10:36:09;;;;;;;35.90;18.77;;;11.00;99.90;;;;;;5077522;28;20117;-80
2023/10/24 10:38:48;;;;;;;38.00;19.50;;;11.00;99.90;;;;;;5095188;28;20508;-82
2023/10/24 10:41:23;;;;;;;37.03;19.20;;;11.00;99.90;;;;;;5077544;28;20059;-84
2023/10/24 10:43:50;;;;;;;37.75;18.48;;;11.00;99.90;;;;;;5078961;28;20055;-78
2023/10/24 10:46:27;;;;;;;34.63;18.08;;;11.10;99.90;;;;;;5098683;28;20078;-79
2023/10/24 10:48:59;;;;;;;37.63;18.20;;;11.10;99.90;;;;;;5097410;28;20042;-81
2023/10/24 10:51:33;;;;;;;36.97;19.40;;;11.10;99.90;;;;;;5115198;28;20043;-81
2023/10/24 10:54:24;;;;;;;37.60;18.15;;;11.10;99.90;;;;;;5097474;28;20047;-80
2023/10/24 10:56:50;;;;;;;33.85;17.63;;;11.00;99.90;;;;;;5097733;28;20509;-80
2023/10/24 10:59:49;;;;;;;36.50;17.92;;;11.10;99.90;;;;;;5115445;28;20040;-80
2023/10/24 11:02:45;;;;;;;35.92;18.02;;;11.00;99.90;;;;;;5115730;28;20093;-80
2023/10/24 11:05:37;;;;;;;38.67;17.83;;;11.00;99.90;;;;;;5094047;28;20044;-80
2023/10/24 11:08:06;;;;;;;35.20;17.38;;;11.10;99.90;;;;;;5063352;28;20067;-80
2023/10/24 11:10:55;;;;;;;37.60;18.27;;;11.00;99.90;;;;;;5077040;28;20052;-80
2023/10/24 11:13:38;;;;;;;36.60;19.02;;;11.00;99.90;;;;;;5077107;28;20071;-80
2023/10/24 11:16:12;;;;;;;35.70;17.23;;;11.10;99.90;;;;;;5076833;28;20057;-81
2023/10/24 11:18:39;;;;;;;38.30;18.30;;;11.10;99.90;;;;;;5095124;28;20032;-80
2023/10/24 11:21:07;;;;;;;36.88;17.45;;;11.00;99.90;;;;;;5076532;28;20052;-81
2023/10/24 11:23:34;;;;;;;33.40;16.50;;;11.00;99.90;;;;;;5094910;28;20040;-81
2023/10/24 11:26:00;;;;;;;37.72;17.75;;;11.10;99.90;;;;;;5094251;28;20415;-80
2023/10/24 11:28:27;;;;;;;35.35;17.63;;;11.10;99.90;;;;;;5076520;28;20056;-81
2023/10/24 11:30:57;;;;;;;32.53;17.02;;;11.10;99.90;;;;;;5076720;28;20540;-80
2023/10/24 11:33:24;;;;;;;36.90;18.02;;;11.10;99.90;;;;;;5076459;28;20470;-81
2023/10/24 11:35:50;;;;;;;32.17;17.30;;;11.10;99.90;;;;;;5076237;28;20055;-83
2023/10/24 11:38:16;;;;;;;32.83;17.05;;;11.20;99.90;;;;;;5076826;28;20040;-80
2023/10/24 11:40:46;;;;;;;33.33;17.65;;;11.20;99.90;;;;;;5076237;28;20050;-80
2023/10/24 11:43:13;;;;;;;40.22;19.13;;;11.20;99.90;;;;;;5094613;28;20050;-81
2023/10/24 11:45:40;;;;;;;34.90;17.40;;;11.30;99.90;;;;;;5075945;28;20040;-79
2023/10/24 11:48:06;;;;;;;32.95;17.38;;;11.30;99.90;;;;;;5094537;28;20044;-80
2023/10/24 11:50:44;;;;;;;38.75;19.38;;;11.20;99.90;;;;;;5094167;28;20046;-80
2023/10/24 11:53:11;;;;;;;40.63;18.38;;;11.30;99.90;;;;;;5081762;28;20403;-80
2023/10/24 11:55:37;;;;;;;35.03;17.73;;;11.30;99.90;;;;;;5101986;28;20494;-80
2023/10/24 11:58:06;;;;;;;34.33;18.50;;;11.40;99.90;;;;;;5103759;28;20476;-79
2023/10/24 12:00:32;;;;;;;37.78;18.40;;;11.30;99.90;;;;;;5086975;28;20055;-80
2023/10/24 12:03:07;;;;;;;41.22;20.17;;;11.40;99.90;;;;;;5093848;28;20036;-79
2023/10/24 12:05:33;;;;;;;38.65;19.75;;;11.40;99.90;;;;;;5084474;28;20395;-80
2023/10/24 12:08:00;;;;;;;37.20;18.88;;;11.40;99.90;;;;;;5083683;28;20124;-80
2023/10/24 12:10:28;;;;;;;36.17;18.67;;;11.40;99.90;;;;;;5086786;28;20055;-80
2023/10/24 12:13:12;;;;;;;35.05;18.90;;;11.30;99.90;;;;;;5084547;28;20040;-79
2023/10/24 12:15:38;;;;;;;34.65;17.73;;;11.40;99.90;;;;;;5099605;28;20040;-80
2023/10/24 12:18:06;;;;;;;32.88;18.08;;;11.40;99.90;;;;;;5084554;28;20093;-80
2023/10/24 12:20:32;;;;;;;38.05;18.50;;;11.40;99.90;;;;;;5081318;28;20126;-80
2023/10/24 12:22:58;;;;;;;33.83;19.17;;;11.40;99.90;;;;;;5085462;28;20428;-80
2023/10/24 12:25:25;;;;;;;38.08;19.90;;;11.40;99.90;;;;;;5083492;28;20052;-81
2023/10/24 12:27:51;;;;;;;35.88;17.92;;;11.50;99.90;;;;;;5083336;28;20123;-80
2023/10/24 12:30:16;;;;;;;37.83;18.45;;;11.40;99.90;;;;;;5084633;28;20120;-80